DLH355 EDDH-EDDS
Flight info
| Callsign | DLH355 |
|---|---|
| Flight time | 0h 57m |
| Altitude | 35000 |
| Route | IDEKO7G IDEKO N850 NIE DCT BERXO DCT SILWE DCT OSBIT P605 TOSTU T726 LBU |
| Aircraft | A20N/M-SDE2E3FGHIRWXY/LB1 |
Departure
| Time | 2026-04-26 17:56 |
|---|---|
| Airport | Hamburg Helmut Schmidt Airport (EDDH) |
Arrival
| Time | 2026-04-26 18:53 |
|---|---|
| Airport | Stuttgart Airport (EDDS) |
| Time | Latitude | Longitude | Altitude | Speed | Heading |
|---|---|---|---|---|---|
| 2026-04-26 17:07 | 53.63311 | 10.00031 | 48 ft | 0 kts | 140° |
| 2026-04-26 17:44 | 53.63317 | 10.00023 | 48 ft | 1 kts | 140° |
| 2026-04-26 17:44 | 53.63325 | 10.00012 | 48 ft | 1 kts | 140° |
| 2026-04-26 17:44 | 53.63331 | 10.00003 | 47 ft | 1 kts | 140° |
| 2026-04-26 17:45 | 53.63337 | 9.99995 | 46 ft | 1 kts | 140° |
| 2026-04-26 17:45 | 53.63343 | 9.99986 | 46 ft | 1 kts | 140° |
| 2026-04-26 17:45 | 53.63349 | 9.99978 | 48 ft | 1 kts | 140° |
| 2026-04-26 17:45 | 53.63355 | 9.99969 | 48 ft | 1 kts | 140° |
| 2026-04-26 17:46 | 53.63361 | 9.99961 | 44 ft | 1 kts | 155° |
| 2026-04-26 17:46 | 53.63369 | 9.99956 | 45 ft | 1 kts | 171° |
| 2026-04-26 17:46 | 53.63376 | 9.99955 | 45 ft | 1 kts | 186° |
| 2026-04-26 17:46 | 53.63384 | 9.99957 | 45 ft | 1 kts | 204° |
| 2026-04-26 17:47 | 53.63385 | 9.99958 | 45 ft | 0 kts | 208° |
| 2026-04-26 17:49 | 53.63371 | 9.99939 | 43 ft | 6 kts | 221° |
| 2026-04-26 17:49 | 53.63343 | 9.99891 | 47 ft | 5 kts | 229° |
| 2026-04-26 17:50 | 53.63314 | 9.99832 | 48 ft | 8 kts | 230° |
| 2026-04-26 17:50 | 53.63268 | 9.99758 | 48 ft | 10 kts | 208° |
| 2026-04-26 17:50 | 53.63196 | 9.99783 | 48 ft | 12 kts | 152° |
| 2026-04-26 17:50 | 53.63114 | 9.99856 | 48 ft | 14 kts | 152° |
| 2026-04-26 17:51 | 53.63044 | 9.99918 | 48 ft | 10 kts | 152° |
| 2026-04-26 17:51 | 53.62996 | 9.99959 | 45 ft | 9 kts | 152° |
| 2026-04-26 17:51 | 53.62954 | 9.99996 | 48 ft | 1 kts | 152° |
| 2026-04-26 17:51 | 53.62940 | 10.00009 | 48 ft | 4 kts | 153° |
| 2026-04-26 17:52 | 53.62903 | 10.00035 | 46 ft | 7 kts | 163° |
| 2026-04-26 17:52 | 53.62873 | 10.00028 | 48 ft | 1 kts | 233° |
| 2026-04-26 17:52 | 53.62862 | 10.00003 | 46 ft | 5 kts | 234° |
| 2026-04-26 17:52 | 53.62849 | 9.99969 | 47 ft | 1 kts | 240° |
| 2026-04-26 17:53 | 53.62847 | 9.99950 | 45 ft | 0 kts | 263° |
| 2026-04-26 17:53 | 53.62847 | 9.99947 | 46 ft | 0 kts | 266° |
| 2026-04-26 17:54 | 53.62830 | 9.99796 | 45 ft | 13 kts | 292° |
| 2026-04-26 17:54 | 53.62855 | 9.99758 | 45 ft | 1 kts | 329° |
| 2026-04-26 17:55 | 53.62870 | 9.99743 | 45 ft | 21 kts | 329° |
| 2026-04-26 17:55 | 53.63261 | 9.99408 | 45 ft | 102 kts | 332° |
| 2026-04-26 17:55 | 53.64082 | 9.98694 | 93 ft | 157 kts | 335° |
| 2026-04-26 17:56 | 53.65096 | 9.97899 | 750 ft | 165 kts | 334° |
| 2026-04-26 17:56 | 53.67246 | 9.95997 | 2245 ft | 182 kts | 329° |
| 2026-04-26 17:57 | 53.69468 | 9.93700 | 3754 ft | 199 kts | 328° |
| 2026-04-26 17:57 | 53.70686 | 9.92405 | 4273 ft | 214 kts | 312° |
| 2026-04-26 17:57 | 53.71367 | 9.90259 | 5124 ft | 211 kts | 278° |
| 2026-04-26 17:57 | 53.71230 | 9.87809 | 6070 ft | 214 kts | 255° |
| 2026-04-26 17:58 | 53.69569 | 9.79645 | 7866 ft | 268 kts | 253° |
| 2026-04-26 17:59 | 53.68345 | 9.73611 | 9652 ft | 279 kts | 255° |
| 2026-04-26 17:59 | 53.67721 | 9.70468 | 10106 ft | 283 kts | 255° |
| 2026-04-26 17:59 | 53.67098 | 9.67313 | 10254 ft | 283 kts | 255° |
| 2026-04-26 17:59 | 53.66473 | 9.64146 | 10297 ft | 284 kts | 255° |
| 2026-04-26 18:00 | 53.65727 | 9.61036 | 10291 ft | 289 kts | 241° |
| 2026-04-26 18:00 | 53.64294 | 9.58576 | 10296 ft | 310 kts | 216° |
| 2026-04-26 18:00 | 53.62179 | 9.57198 | 10497 ft | 343 kts | 191° |
| 2026-04-26 18:00 | 53.59781 | 9.56749 | 11104 ft | 353 kts | 187° |
| 2026-04-26 18:01 | 53.57305 | 9.56329 | 11930 ft | 357 kts | 188° |
| 2026-04-26 18:01 | 53.54816 | 9.55883 | 12753 ft | 361 kts | 188° |
| 2026-04-26 18:01 | 53.52295 | 9.55408 | 13552 ft | 366 kts | 189° |
| 2026-04-26 18:01 | 53.49785 | 9.54920 | 14305 ft | 370 kts | 189° |
| 2026-04-26 18:02 | 53.47212 | 9.54414 | 15065 ft | 372 kts | 189° |
| 2026-04-26 18:02 | 53.46340 | 9.54242 | 15321 ft | 373 kts | 189° |
| 2026-04-26 18:02 | 53.42019 | 9.53387 | 16528 ft | 379 kts | 189° |
| 2026-04-26 18:02 | 53.39391 | 9.52868 | 17251 ft | 382 kts | 189° |
| 2026-04-26 18:03 | 53.36769 | 9.52352 | 17963 ft | 385 kts | 189° |
| 2026-04-26 18:03 | 53.34092 | 9.51826 | 18661 ft | 388 kts | 189° |
| 2026-04-26 18:03 | 53.31397 | 9.51297 | 19272 ft | 391 kts | 190° |
| 2026-04-26 18:03 | 53.28666 | 9.50761 | 19897 ft | 395 kts | 190° |
| 2026-04-26 18:04 | 53.25921 | 9.50223 | 20488 ft | 398 kts | 190° |
| 2026-04-26 18:04 | 53.23191 | 9.49688 | 21075 ft | 401 kts | 190° |
| 2026-04-26 18:04 | 53.20402 | 9.49143 | 21665 ft | 405 kts | 190° |
| 2026-04-26 18:05 | 53.14749 | 9.48040 | 22827 ft | 412 kts | 190° |
| 2026-04-26 18:05 | 53.11887 | 9.47483 | 23403 ft | 415 kts | 190° |
| 2026-04-26 18:05 | 53.08998 | 9.46921 | 23952 ft | 418 kts | 190° |
| 2026-04-26 18:05 | 53.06087 | 9.46357 | 24389 ft | 421 kts | 190° |
| 2026-04-26 18:06 | 53.03189 | 9.46097 | 24827 ft | 428 kts | 179° |
| 2026-04-26 18:06 | 53.00216 | 9.46690 | 25289 ft | 433 kts | 174° |
| 2026-04-26 18:06 | 52.97233 | 9.47546 | 25749 ft | 436 kts | 173° |
| 2026-04-26 18:06 | 52.94238 | 9.48416 | 26222 ft | 438 kts | 173° |
| 2026-04-26 18:07 | 52.91225 | 9.49237 | 26698 ft | 439 kts | 174° |
| 2026-04-26 18:07 | 52.88197 | 9.50010 | 27182 ft | 441 kts | 175° |
| 2026-04-26 18:07 | 52.86185 | 9.50505 | 27509 ft | 441 kts | 175° |
| 2026-04-26 18:07 | 52.84129 | 9.51002 | 27848 ft | 441 kts | 175° |
| 2026-04-26 18:08 | 52.80100 | 9.51965 | 28513 ft | 441 kts | 175° |
| 2026-04-26 18:08 | 52.77053 | 9.52689 | 29022 ft | 441 kts | 175° |
| 2026-04-26 18:08 | 52.74012 | 9.53411 | 29563 ft | 440 kts | 175° |
| 2026-04-26 18:08 | 52.70989 | 9.54128 | 30075 ft | 439 kts | 175° |
| 2026-04-26 18:09 | 52.67973 | 9.54841 | 30277 ft | 446 kts | 175° |
| 2026-04-26 18:09 | 52.64852 | 9.55576 | 30296 ft | 457 kts | 175° |
| 2026-04-26 18:09 | 52.61667 | 9.56326 | 30297 ft | 467 kts | 175° |
| 2026-04-26 18:10 | 52.55172 | 9.57863 | 30469 ft | 472 kts | 175° |
| 2026-04-26 18:10 | 52.51913 | 9.58633 | 30825 ft | 473 kts | 175° |
| 2026-04-26 18:10 | 52.48656 | 9.59400 | 31137 ft | 475 kts | 175° |
| 2026-04-26 18:10 | 52.45412 | 9.60162 | 31435 ft | 477 kts | 175° |
| 2026-04-26 18:11 | 52.42124 | 9.60933 | 31802 ft | 477 kts | 175° |
| 2026-04-26 18:11 | 52.38837 | 9.61703 | 32194 ft | 476 kts | 175° |
| 2026-04-26 18:11 | 52.35560 | 9.62469 | 32588 ft | 476 kts | 175° |
| 2026-04-26 18:11 | 52.32281 | 9.63235 | 32974 ft | 475 kts | 175° |
| 2026-04-26 18:12 | 52.29007 | 9.63998 | 33354 ft | 474 kts | 175° |
| 2026-04-26 18:12 | 52.25740 | 9.64758 | 33721 ft | 474 kts | 175° |
| 2026-04-26 18:12 | 52.22478 | 9.65516 | 34093 ft | 473 kts | 175° |
| 2026-04-26 18:12 | 52.19219 | 9.66272 | 34427 ft | 472 kts | 175° |
| 2026-04-26 18:13 | 52.15960 | 9.67026 | 34718 ft | 472 kts | 175° |
| 2026-04-26 18:13 | 52.12752 | 9.67768 | 35008 ft | 471 kts | 175° |
| 2026-04-26 18:13 | 52.09507 | 9.68517 | 35223 ft | 471 kts | 175° |
| 2026-04-26 18:14 | 52.03017 | 9.70014 | 35292 ft | 469 kts | 175° |
| 2026-04-26 18:14 | 51.96541 | 9.71502 | 35291 ft | 469 kts | 175° |
| 2026-04-26 18:15 | 51.90105 | 9.72978 | 35288 ft | 469 kts | 175° |
| 2026-04-26 18:15 | 51.83645 | 9.74455 | 35288 ft | 468 kts | 175° |
| 2026-04-26 18:16 | 51.77216 | 9.75920 | 35286 ft | 468 kts | 175° |
| 2026-04-26 18:16 | 51.67519 | 9.78123 | 35291 ft | 468 kts | 175° |
| 2026-04-26 18:17 | 51.61053 | 9.79586 | 35289 ft | 468 kts | 175° |
| 2026-04-26 18:17 | 51.54590 | 9.81045 | 35286 ft | 468 kts | 175° |
| 2026-04-26 18:18 | 51.48186 | 9.82486 | 35284 ft | 468 kts | 175° |
| 2026-04-26 18:18 | 51.41731 | 9.83934 | 35284 ft | 467 kts | 175° |
| 2026-04-26 18:19 | 51.35277 | 9.85378 | 35283 ft | 467 kts | 175° |
| 2026-04-26 18:19 | 51.28873 | 9.86807 | 35282 ft | 467 kts | 175° |
| 2026-04-26 18:20 | 51.22417 | 9.88014 | 35283 ft | 464 kts | 181° |
| 2026-04-26 18:20 | 51.17074 | 9.87788 | 35276 ft | 460 kts | 187° |
| 2026-04-26 18:21 | 51.09640 | 9.87094 | 35274 ft | 460 kts | 186° |
| 2026-04-26 18:21 | 51.03244 | 9.86527 | 35270 ft | 460 kts | 186° |
| 2026-04-26 18:22 | 50.96892 | 9.85974 | 35228 ft | 458 kts | 186° |
| 2026-04-26 18:22 | 50.93709 | 9.85699 | 34881 ft | 457 kts | 186° |
| 2026-04-26 18:22 | 50.90534 | 9.85425 | 34319 ft | 457 kts | 186° |
| 2026-04-26 18:23 | 50.87359 | 9.85150 | 33575 ft | 457 kts | 186° |
| 2026-04-26 18:23 | 50.84171 | 9.84874 | 32766 ft | 458 kts | 186° |
| 2026-04-26 18:23 | 50.80985 | 9.84597 | 31942 ft | 460 kts | 186° |
| 2026-04-26 18:23 | 50.77768 | 9.84318 | 31128 ft | 462 kts | 186° |
| 2026-04-26 18:24 | 50.74555 | 9.84041 | 30384 ft | 462 kts | 185° |
| 2026-04-26 18:24 | 50.71393 | 9.83769 | 29727 ft | 458 kts | 185° |
| 2026-04-26 18:24 | 50.68231 | 9.83499 | 29130 ft | 453 kts | 185° |
| 2026-04-26 18:24 | 50.65095 | 9.83231 | 28497 ft | 449 kts | 185° |
| 2026-04-26 18:25 | 50.61986 | 9.82965 | 27887 ft | 444 kts | 185° |
| 2026-04-26 18:25 | 50.58916 | 9.82702 | 27292 ft | 440 kts | 185° |
| 2026-04-26 18:25 | 50.55867 | 9.82441 | 26695 ft | 436 kts | 185° |
| 2026-04-26 18:25 | 50.52857 | 9.82184 | 26467 ft | 428 kts | 185° |
| 2026-04-26 18:26 | 50.49894 | 9.81929 | 26459 ft | 435 kts | 185° |
| 2026-04-26 18:26 | 50.46865 | 9.81667 | 26448 ft | 436 kts | 185° |
| 2026-04-26 18:26 | 50.43831 | 9.81409 | 26375 ft | 434 kts | 185° |
| 2026-04-26 18:26 | 50.40810 | 9.81152 | 25929 ft | 435 kts | 185° |
| 2026-04-26 18:27 | 50.37787 | 9.80897 | 25388 ft | 432 kts | 185° |
| 2026-04-26 18:27 | 50.34819 | 9.80648 | 25256 ft | 420 kts | 185° |
| 2026-04-26 18:27 | 50.31918 | 9.80402 | 25081 ft | 426 kts | 185° |
| 2026-04-26 18:27 | 50.28950 | 9.80149 | 24843 ft | 426 kts | 185° |
| 2026-04-26 18:28 | 50.25983 | 9.79898 | 24600 ft | 423 kts | 185° |
| 2026-04-26 18:28 | 50.23058 | 9.79652 | 24368 ft | 421 kts | 185° |
| 2026-04-26 18:28 | 50.20130 | 9.79406 | 24269 ft | 419 kts | 185° |
| 2026-04-26 18:28 | 50.17245 | 9.79162 | 24255 ft | 421 kts | 185° |
| 2026-04-26 18:29 | 50.14319 | 9.78916 | 24258 ft | 421 kts | 185° |
| 2026-04-26 18:29 | 50.11382 | 9.78669 | 24253 ft | 421 kts | 185° |
| 2026-04-26 18:29 | 50.08460 | 9.78424 | 24251 ft | 421 kts | 185° |
| 2026-04-26 18:29 | 50.05522 | 9.78374 | 24257 ft | 423 kts | 179° |
| 2026-04-26 18:30 | 50.02581 | 9.78573 | 24257 ft | 423 kts | 179° |
| 2026-04-26 18:30 | 49.99633 | 9.78771 | 24249 ft | 421 kts | 179° |
| 2026-04-26 18:30 | 49.96794 | 9.78907 | 24246 ft | 404 kts | 184° |
| 2026-04-26 18:30 | 49.94066 | 9.78349 | 24250 ft | 392 kts | 197° |
| 2026-04-26 18:31 | 49.91402 | 9.77238 | 24253 ft | 399 kts | 197° |
| 2026-04-26 18:31 | 49.88721 | 9.76097 | 24253 ft | 399 kts | 198° |
| 2026-04-26 18:31 | 49.86053 | 9.74944 | 24250 ft | 398 kts | 198° |
| 2026-04-26 18:31 | 49.83374 | 9.73774 | 24107 ft | 399 kts | 198° |
| 2026-04-26 18:32 | 49.80710 | 9.72605 | 23873 ft | 396 kts | 198° |
| 2026-04-26 18:32 | 49.78059 | 9.71440 | 23609 ft | 394 kts | 198° |
| 2026-04-26 18:32 | 49.75423 | 9.70283 | 23334 ft | 392 kts | 198° |
| 2026-04-26 18:32 | 49.72836 | 9.69147 | 22960 ft | 391 kts | 198° |
| 2026-04-26 18:33 | 49.70219 | 9.68001 | 22520 ft | 388 kts | 198° |
| 2026-04-26 18:33 | 49.67633 | 9.66870 | 22053 ft | 383 kts | 198° |
| 2026-04-26 18:33 | 49.65072 | 9.65752 | 21616 ft | 380 kts | 198° |
| 2026-04-26 18:33 | 49.62531 | 9.64641 | 21175 ft | 379 kts | 198° |
| 2026-04-26 18:34 | 49.60006 | 9.63540 | 20716 ft | 375 kts | 198° |
| 2026-04-26 18:34 | 49.57501 | 9.62449 | 20260 ft | 372 kts | 198° |
| 2026-04-26 18:34 | 49.55016 | 9.61367 | 19796 ft | 370 kts | 198° |
| 2026-04-26 18:34 | 49.52540 | 9.60290 | 19312 ft | 368 kts | 198° |
| 2026-04-26 18:35 | 49.50075 | 9.59220 | 18834 ft | 366 kts | 197° |
| 2026-04-26 18:35 | 49.47667 | 9.58175 | 18344 ft | 363 kts | 197° |
| 2026-04-26 18:35 | 49.45233 | 9.57120 | 17806 ft | 361 kts | 197° |
| 2026-04-26 18:35 | 49.42818 | 9.56075 | 17315 ft | 358 kts | 197° |
| 2026-04-26 18:36 | 49.40425 | 9.55041 | 16846 ft | 355 kts | 197° |
| 2026-04-26 18:36 | 49.38058 | 9.54018 | 16448 ft | 350 kts | 197° |
| 2026-04-26 18:36 | 49.35744 | 9.53020 | 16189 ft | 340 kts | 197° |
| 2026-04-26 18:36 | 49.33528 | 9.52008 | 15933 ft | 331 kts | 204° |
| 2026-04-26 18:37 | 49.31541 | 9.50348 | 15686 ft | 321 kts | 213° |
| 2026-04-26 18:37 | 49.29668 | 9.48560 | 15453 ft | 313 kts | 214° |
| 2026-04-26 18:37 | 49.27833 | 9.46809 | 15190 ft | 307 kts | 213° |
| 2026-04-26 18:37 | 49.26033 | 9.45093 | 14945 ft | 303 kts | 213° |
| 2026-04-26 18:38 | 49.24235 | 9.43378 | 14690 ft | 305 kts | 213° |
| 2026-04-26 18:38 | 49.22435 | 9.41664 | 14347 ft | 304 kts | 213° |
| 2026-04-26 18:38 | 49.20645 | 9.39960 | 13995 ft | 301 kts | 213° |
| 2026-04-26 18:38 | 49.18899 | 9.38300 | 13638 ft | 298 kts | 213° |
| 2026-04-26 18:39 | 49.17138 | 9.36631 | 13270 ft | 296 kts | 213° |
| 2026-04-26 18:39 | 49.15392 | 9.34976 | 12905 ft | 295 kts | 213° |
| 2026-04-26 18:39 | 49.13642 | 9.33317 | 12540 ft | 294 kts | 213° |
| 2026-04-26 18:39 | 49.11904 | 9.31670 | 12156 ft | 292 kts | 213° |
| 2026-04-26 18:40 | 49.10208 | 9.30067 | 11785 ft | 290 kts | 213° |
| 2026-04-26 18:40 | 49.08492 | 9.28450 | 11415 ft | 288 kts | 213° |
| 2026-04-26 18:40 | 49.06802 | 9.26860 | 11259 ft | 285 kts | 213° |
| 2026-04-26 18:40 | 49.05099 | 9.25258 | 11223 ft | 288 kts | 213° |
| 2026-04-26 18:41 | 49.03385 | 9.23646 | 11222 ft | 288 kts | 213° |
| 2026-04-26 18:41 | 49.01697 | 9.22061 | 11216 ft | 288 kts | 213° |
| 2026-04-26 18:41 | 48.99969 | 9.20438 | 11209 ft | 288 kts | 213° |
| 2026-04-26 18:41 | 48.98289 | 9.18860 | 11210 ft | 285 kts | 213° |
| 2026-04-26 18:42 | 48.96636 | 9.17310 | 11148 ft | 273 kts | 213° |
| 2026-04-26 18:42 | 48.95049 | 9.15830 | 10968 ft | 264 kts | 213° |
| 2026-04-26 18:42 | 48.93492 | 9.14380 | 10709 ft | 260 kts | 213° |
| 2026-04-26 18:42 | 48.91943 | 9.12935 | 10348 ft | 260 kts | 213° |
| 2026-04-26 18:43 | 48.90399 | 9.11496 | 9976 ft | 260 kts | 213° |
| 2026-04-26 18:43 | 48.88924 | 9.09907 | 9581 ft | 259 kts | 222° |
| 2026-04-26 18:43 | 48.87571 | 9.08100 | 9195 ft | 258 kts | 223° |
| 2026-04-26 18:43 | 48.86245 | 9.06304 | 8817 ft | 259 kts | 223° |
| 2026-04-26 18:44 | 48.84897 | 9.04469 | 8427 ft | 259 kts | 223° |
| 2026-04-26 18:44 | 48.83550 | 9.02628 | 8044 ft | 260 kts | 223° |
| 2026-04-26 18:44 | 48.82222 | 9.00807 | 7674 ft | 260 kts | 224° |
| 2026-04-26 18:44 | 48.80879 | 8.98961 | 7305 ft | 260 kts | 223° |
| 2026-04-26 18:45 | 48.79536 | 8.97114 | 6942 ft | 260 kts | 223° |
| 2026-04-26 18:45 | 48.78199 | 8.95270 | 6575 ft | 260 kts | 224° |
| 2026-04-26 18:45 | 48.76858 | 8.93417 | 6188 ft | 261 kts | 223° |
| 2026-04-26 18:45 | 48.75517 | 8.91560 | 5803 ft | 260 kts | 223° |
| 2026-04-26 18:46 | 48.74194 | 8.89722 | 5418 ft | 260 kts | 223° |
| 2026-04-26 18:46 | 48.72863 | 8.87858 | 5096 ft | 258 kts | 223° |
| 2026-04-26 18:46 | 48.71437 | 8.86328 | 4997 ft | 246 kts | 200° |
| 2026-04-26 18:46 | 48.69810 | 8.86047 | 4987 ft | 229 kts | 168° |
| 2026-04-26 18:47 | 48.68321 | 8.86607 | 4984 ft | 212 kts | 163° |
| 2026-04-26 18:47 | 48.66966 | 8.87170 | 4984 ft | 196 kts | 163° |
| 2026-04-26 18:47 | 48.65714 | 8.87684 | 5006 ft | 180 kts | 163° |
| 2026-04-26 18:47 | 48.64530 | 8.88399 | 4987 ft | 185 kts | 140° |
| 2026-04-26 18:48 | 48.63848 | 8.89981 | 4996 ft | 181 kts | 105° |
| 2026-04-26 18:48 | 48.63584 | 8.91841 | 4994 ft | 181 kts | 92° |
| 2026-04-26 18:48 | 48.63655 | 8.93743 | 4891 ft | 181 kts | 79° |
| 2026-04-26 18:48 | 48.63935 | 8.95593 | 4655 ft | 177 kts | 73° |
| 2026-04-26 18:49 | 48.64269 | 8.97341 | 4430 ft | 172 kts | 72° |
| 2026-04-26 18:49 | 48.64605 | 8.99110 | 4189 ft | 176 kts | 73° |
| 2026-04-26 18:49 | 48.64941 | 9.00877 | 3948 ft | 175 kts | 73° |
| 2026-04-26 18:49 | 48.65271 | 9.02616 | 3721 ft | 173 kts | 73° |
| 2026-04-26 18:50 | 48.65600 | 9.04351 | 3492 ft | 171 kts | 73° |
| 2026-04-26 18:50 | 48.65929 | 9.06083 | 3257 ft | 172 kts | 72° |
| 2026-04-26 18:50 | 48.66257 | 9.07812 | 3031 ft | 170 kts | 73° |
| 2026-04-26 18:50 | 48.66579 | 9.09509 | 2809 ft | 167 kts | 72° |
| 2026-04-26 18:51 | 48.66884 | 9.11120 | 2584 ft | 152 kts | 72° |
| 2026-04-26 18:51 | 48.67076 | 9.12131 | 2446 ft | 144 kts | 73° |
| 2026-04-26 18:51 | 48.67427 | 9.13980 | 2183 ft | 129 kts | 73° |
| 2026-04-26 18:51 | 48.67684 | 9.15337 | 2013 ft | 138 kts | 72° |
| 2026-04-26 18:52 | 48.67936 | 9.16702 | 1755 ft | 135 kts | 72° |
| 2026-04-26 18:52 | 48.68097 | 9.17609 | 1671 ft | 134 kts | 72° |
| 2026-04-26 18:52 | 48.68366 | 9.18992 | 1522 ft | 139 kts | 71° |
| 2026-04-26 18:52 | 48.68639 | 9.20375 | 1309 ft | 135 kts | 70° |
| 2026-04-26 18:53 | 48.68903 | 9.21625 | 1286 ft | 104 kts | 75° |
| 2026-04-26 18:53 | 48.69053 | 9.22476 | 1288 ft | 50 kts | 72° |
| 2026-04-26 18:53 | 48.69114 | 9.22806 | 1286 ft | 40 kts | 63° |
| 2026-04-26 18:53 | 48.69288 | 9.23120 | 1285 ft | 40 kts | 36° |
| 2026-04-26 18:54 | 48.69389 | 9.23137 | 1286 ft | 0 kts | 313° |
| 2026-04-26 18:55 | 48.69403 | 9.23105 | 1288 ft | 12 kts | 297° |
| 2026-04-26 18:55 | 48.69386 | 9.22907 | 1286 ft | 26 kts | 257° |
| 2026-04-26 18:56 | 48.69332 | 9.22649 | 1287 ft | 20 kts | 258° |
| 2026-04-26 18:56 | 48.69326 | 9.22608 | 1286 ft | 5 kts | 254° |
| 2026-04-26 18:56 | 48.69311 | 9.22528 | 1286 ft | 10 kts | 254° |
| 2026-04-26 18:56 | 48.69290 | 9.22410 | 1288 ft | 13 kts | 255° |
| 2026-04-26 18:57 | 48.69263 | 9.22265 | 1289 ft | 16 kts | 255° |
| 2026-04-26 18:57 | 48.69242 | 9.22146 | 1286 ft | 19 kts | 255° |
| 2026-04-26 18:57 | 48.69183 | 9.21852 | 1285 ft | 25 kts | 252° |
| 2026-04-26 18:57 | 48.69135 | 9.21600 | 1288 ft | 25 kts | 255° |
| 2026-04-26 18:58 | 48.69120 | 9.21513 | 1289 ft | 3 kts | 255° |
| 2026-04-26 18:58 | 48.69101 | 9.21417 | 1287 ft | 17 kts | 253° |
| 2026-04-26 18:58 | 48.69060 | 9.21202 | 1289 ft | 26 kts | 250° |
| 2026-04-26 18:58 | 48.69015 | 9.20956 | 1287 ft | 27 kts | 251° |
| 2026-04-26 18:59 | 48.68965 | 9.20702 | 1288 ft | 11 kts | 251° |
| 2026-04-26 18:59 | 48.68936 | 9.20540 | 1285 ft | 19 kts | 254° |
| 2026-04-26 18:59 | 48.68895 | 9.20335 | 1285 ft | 21 kts | 253° |
| 2026-04-26 18:59 | 48.68857 | 9.20130 | 1287 ft | 15 kts | 254° |
| 2026-04-26 19:00 | 48.68850 | 9.20093 | 1288 ft | 0 kts | 254° |
| 2026-04-26 19:00 | 48.68846 | 9.20073 | 1289 ft | 4 kts | 252° |
| 2026-04-26 19:00 | 48.68826 | 9.19971 | 1288 ft | 17 kts | 261° |
| 2026-04-26 19:00 | 48.68884 | 9.19845 | 1285 ft | 15 kts | 296° |
| 2026-04-26 19:01 | 48.68877 | 9.19788 | 1285 ft | 5 kts | 253° |
| 2026-04-26 19:01 | 48.68867 | 9.19706 | 1285 ft | 10 kts | 256° |
| 2026-04-26 19:01 | 48.68844 | 9.19584 | 1288 ft | 14 kts | 254° |
| 2026-04-26 19:01 | 48.68818 | 9.19449 | 1288 ft | 7 kts | 254° |
| 2026-04-26 19:02 | 48.68793 | 9.19393 | 1285 ft | 0 kts | 188° |
| 2026-04-26 19:02 | 48.68784 | 9.19393 | 1286 ft | 4 kts | 179° |
| 2026-04-26 19:02 | 48.68781 | 9.19393 | 1287 ft | 0 kts | 178° |